createdAt,value
2022-12-01T00:01:21.118Z,34.58
2022-12-01T00:03:47.833Z,34.00
2022-12-01T00:06:23.652Z,34.95
2022-12-01T00:12:01.546Z,35.65
2022-12-01T00:14:28.205Z,34.25
2022-12-01T00:16:54.864Z,37.05
2022-12-01T00:19:25.167Z,36.92
2022-12-01T00:21:51.842Z,34.90
2022-12-01T00:24:18.985Z,34.65
2022-12-01T00:26:45.756Z,35.92
2022-12-01T00:29:12.418Z,37.53
2022-12-01T00:31:39.150Z,37.33
2022-12-01T00:34:11.134Z,38.92
2022-12-01T00:36:38.576Z,35.78
2022-12-01T00:39:05.237Z,38.65
2022-12-01T00:41:31.898Z,37.33
2022-12-01T00:43:58.554Z,40.78
2022-12-01T00:46:25.278Z,34.97
2022-12-01T00:48:52.000Z,37.15
2022-12-01T00:51:18.726Z,36.83
2022-12-01T00:53:46.024Z,34.80
2022-12-01T00:56:12.902Z,31.88
2022-12-01T00:58:39.558Z,33.25
2022-12-01T01:01:06.476Z,34.40
2022-12-01T01:03:34.264Z,34.25
2022-12-01T01:06:10.202Z,36.83
2022-12-01T01:08:37.664Z,35.22
2022-12-01T01:11:05.902Z,33.17
2022-12-01T01:13:33.628Z,36.63
2022-12-01T01:16:21.258Z,38.60
2022-12-01T01:18:48.325Z,39.88
2022-12-01T01:21:18.834Z,35.60
2022-12-01T01:23:45.555Z,36.38
2022-12-01T01:26:14.138Z,38.50
2022-12-01T01:28:43.658Z,37.65
2022-12-01T01:31:13.306Z,38.50
2022-12-01T01:33:40.447Z,37.70
2022-12-01T01:36:07.853Z,34.70
2022-12-01T01:38:35.439Z,38.65
2022-12-01T01:41:03.394Z,40.80
2022-12-01T01:43:49.313Z,44.70
2022-12-01T01:46:23.968Z,45.78
2022-12-01T01:49:00.050Z,49.25
2022-12-01T01:51:38.145Z,50.35
2022-12-01T01:54:15.546Z,58.72
2022-12-01T01:56:43.961Z,53.67
2022-12-01T01:59:12.741Z,45.65
2022-12-01T02:01:39.483Z,51.10
2022-12-01T02:04:07.270Z,53.00
2022-12-01T02:06:34.023Z,68.18
2022-12-01T02:09:00.695Z,52.70
2022-12-01T02:11:48.350Z,56.70
2022-12-01T02:14:40.820Z,43.50
2022-12-01T02:17:30.048Z,51.20
2022-12-01T02:20:11.729Z,44.42
2022-12-01T02:22:54.088Z,53.42
2022-12-01T02:25:43.320Z,50.05
2022-12-01T02:28:34.569Z,48.58
2022-12-01T02:31:16.354Z,50.28
2022-12-01T02:33:58.440Z,48.72
2022-12-01T02:36:35.099Z,54.00
2022-12-01T02:39:20.266Z,47.75
2022-12-01T02:41:52.490Z,54.78
2022-12-01T02:44:34.172Z,52.80
2022-12-01T02:47:16.183Z,45.42
2022-12-01T02:49:51.687Z,47.42
2022-12-01T02:52:19.935Z,54.45
2022-12-01T02:54:48.346Z,40.65
2022-12-01T02:57:16.857Z,50.05
2022-12-01T02:59:48.514Z,52.83
2022-12-01T03:02:52.921Z,52.17
2022-12-01T03:05:29.256Z,47.80
2022-12-01T03:08:19.481Z,54.13
2022-12-01T03:10:55.550Z,44.33
2022-12-01T03:13:40.853Z,47.70
2022-12-01T03:16:26.912Z,47.00
2022-12-01T03:18:56.442Z,50.83
2022-12-01T03:21:32.079Z,38.53
2022-12-01T03:24:03.824Z,47.47
2022-12-01T03:26:32.585Z,48.38
2022-12-01T03:29:05.361Z,43.00
2022-12-01T03:31:40.693Z,40.38
2022-12-01T03:34:15.459Z,41.90
2022-12-01T03:36:53.553Z,41.63
2022-12-01T03:39:27.962Z,48.35
2022-12-01T03:42:05.447Z,39.20
2022-12-01T03:44:39.298Z,45.70
2022-12-01T03:47:10.692Z,51.10
2022-12-01T03:49:39.310Z,48.47
2022-12-01T03:52:10.049Z,43.63
2022-12-01T03:54:54.772Z,44.00
2022-12-01T03:58:01.132Z,43.58
2022-12-01T04:00:29.253Z,45.58
2022-12-01T04:02:57.655Z,43.10
2022-12-01T04:05:25.901Z,42.08
2022-12-01T04:07:53.401Z,43.15
2022-12-01T04:10:20.165Z,48.70
2022-12-01T04:12:46.918Z,45.85
2022-12-01T04:15:14.484Z,39.85
2022-12-01T04:17:46.483Z,42.25
2022-12-01T04:20:14.887Z,37.83
2022-12-01T04:22:41.769Z,44.85
2022-12-01T04:25:09.118Z,45.85
2022-12-01T04:27:36.288Z,46.90
2022-12-01T04:30:04.778Z,45.17
2022-12-01T04:32:31.476Z,40.50
2022-12-01T04:34:58.147Z,41.97
2022-12-01T04:37:24.848Z,47.05
2022-12-01T04:39:51.874Z,34.85
2022-12-01T04:42:18.836Z,40.50
2022-12-01T04:44:45.580Z,36.75
2022-12-01T04:47:12.245Z,41.22
2022-12-01T04:49:38.982Z,37.17
2022-12-01T04:52:05.608Z,40.72
2022-12-01T04:54:32.273Z,39.53
2022-12-01T04:56:58.964Z,38.65
2022-12-01T04:59:25.630Z,36.53
2022-12-01T05:01:52.339Z,38.13
2022-12-01T05:04:19.032Z,38.42
2022-12-01T05:06:45.721Z,39.70
2022-12-01T05:09:17.552Z,40.58
2022-12-01T05:11:45.031Z,35.85
2022-12-01T05:14:11.706Z,37.45
2022-12-01T05:16:38.664Z,34.90
2022-12-01T05:19:25.045Z,37.10
2022-12-01T05:21:52.342Z,36.45
2022-12-01T05:24:20.616Z,37.60
2022-12-01T05:26:47.544Z,38.13
2022-12-01T05:29:14.509Z,34.22
2022-12-01T05:31:41.590Z,37.88
2022-12-01T05:34:08.994Z,32.85
2022-12-01T05:36:36.409Z,35.13
2022-12-01T05:39:04.195Z,36.67
2022-12-01T05:41:30.897Z,40.22
2022-12-01T05:43:57.553Z,35.00
2022-12-01T05:46:24.414Z,38.10
2022-12-01T05:48:51.165Z,35.08
2022-12-01T05:51:17.869Z,31.80
2022-12-01T05:53:45.055Z,37.17
2022-12-01T05:56:12.194Z,34.65
2022-12-01T05:58:38.876Z,41.80
2022-12-01T06:01:05.798Z,39.60
2022-12-01T06:03:32.447Z,38.53
2022-12-01T06:05:59.110Z,44.87
2022-12-01T06:08:25.770Z,43.28
2022-12-01T06:10:52.586Z,39.55
2022-12-01T06:13:19.265Z,37.17
2022-12-01T06:15:45.969Z,41.20
2022-12-01T06:18:12.925Z,37.78
2022-12-01T06:20:39.595Z,35.85
2022-12-01T06:23:06.312Z,38.08
2022-12-01T06:25:33.047Z,41.35
2022-12-01T06:28:00.037Z,44.10
2022-12-01T06:30:26.811Z,34.30
2022-12-01T06:32:53.615Z,42.67
2022-12-01T06:35:20.447Z,40.22
2022-12-01T06:37:47.312Z,37.25
2022-12-01T06:40:14.229Z,39.47
2022-12-01T06:42:41.086Z,41.75
2022-12-01T06:45:08.245Z,38.17
2022-12-01T06:47:35.006Z,38.70
2022-12-01T06:50:02.257Z,39.95
2022-12-01T06:52:28.947Z,39.00
2022-12-01T06:54:55.743Z,39.78
2022-12-01T06:57:22.594Z,40.35
2022-12-01T06:59:49.637Z,42.75
2022-12-01T07:02:17.362Z,45.30
2022-12-01T07:04:44.066Z,43.10
2022-12-01T07:07:12.169Z,37.65
2022-12-01T07:09:39.737Z,38.00
2022-12-01T07:12:06.787Z,39.05
2022-12-01T07:14:33.633Z,34.42
2022-12-01T07:17:00.414Z,43.25
2022-12-01T07:19:27.149Z,35.33
2022-12-01T07:21:53.821Z,40.45
2022-12-01T07:24:20.561Z,39.80
2022-12-01T07:26:48.137Z,37.92
2022-12-01T07:29:14.972Z,34.92
2022-12-01T07:31:41.645Z,36.40
2022-12-01T07:34:12.840Z,42.58
2022-12-01T07:36:39.584Z,34.75
2022-12-01T07:39:08.041Z,39.00
2022-12-01T07:41:35.640Z,33.45
2022-12-01T07:44:02.668Z,35.00
2022-12-01T07:46:29.765Z,39.33
2022-12-01T07:48:57.171Z,37.45
2022-12-01T07:51:25.473Z,37.50
2022-12-01T07:53:53.265Z,39.08
2022-12-01T07:56:21.662Z,38.28
2022-12-01T07:58:49.005Z,36.15
2022-12-01T08:01:21.130Z,37.38
2022-12-01T08:03:49.973Z,39.05
2022-12-01T08:06:17.447Z,38.33
2022-12-01T08:08:44.459Z,35.53
2022-12-01T08:11:15.118Z,36.55
2022-12-01T08:13:42.904Z,39.90
2022-12-01T08:16:12.370Z,36.55
2022-12-01T08:18:40.325Z,40.30
2022-12-01T08:21:09.214Z,38.80
2022-12-01T08:23:35.886Z,38.67
2022-12-01T08:26:08.098Z,37.53
2022-12-01T08:28:41.143Z,36.03
2022-12-01T08:31:20.771Z,34.90
2022-12-01T08:33:48.266Z,36.58
2022-12-01T08:36:15.485Z,37.50
2022-12-01T08:38:46.768Z,39.77
2022-12-01T08:41:13.801Z,38.17
2022-12-01T08:43:57.067Z,33.42
2022-12-01T08:46:26.134Z,35.90
2022-12-01T08:48:54.897Z,32.53
2022-12-01T08:51:21.618Z,36.40
2022-12-01T08:53:49.517Z,32.25
2022-12-01T08:56:24.466Z,32.05
2022-12-01T08:58:51.912Z,34.90
2022-12-01T09:01:19.338Z,27.38
2022-12-01T09:03:46.242Z,25.00
2022-12-01T09:06:16.269Z,27.50
2022-12-01T09:08:43.810Z,25.73
2022-12-01T09:11:17.671Z,33.10
2022-12-01T09:13:49.929Z,29.85
2022-12-01T09:16:19.838Z,25.83
2022-12-01T09:18:48.206Z,27.05
2022-12-01T09:21:23.467Z,26.23
2022-12-01T09:23:50.518Z,25.80
2022-12-01T09:26:19.557Z,26.23
2022-12-01T09:28:48.138Z,28.15
2022-12-01T09:31:16.155Z,26.75
2022-12-01T09:33:43.076Z,25.08
2022-12-01T09:36:10.496Z,24.08
2022-12-01T09:38:38.446Z,30.60
2022-12-01T09:41:21.577Z,27.20
2022-12-01T09:44:00.553Z,25.98
2022-12-01T09:46:33.389Z,26.87
2022-12-01T09:49:02.654Z,27.42
2022-12-01T09:51:31.010Z,27.83
2022-12-01T09:53:59.865Z,25.23
2022-12-01T09:56:32.287Z,36.97
2022-12-01T09:59:02.141Z,27.15
2022-12-01T10:01:44.991Z,27.88
2022-12-01T10:04:20.793Z,25.88
2022-12-01T10:07:04.464Z,25.60
2022-12-01T10:09:55.020Z,25.90
2022-12-01T10:12:27.558Z,24.13
2022-12-01T10:15:06.510Z,27.33
2022-12-01T10:17:33.299Z,25.10
2022-12-01T10:20:22.548Z,24.77
2022-12-01T10:23:14.918Z,26.98
2022-12-01T10:25:57.274Z,26.70
2022-12-01T10:28:45.350Z,26.83
2022-12-01T10:31:26.346Z,24.13
2022-12-01T10:34:07.354Z,23.33
2022-12-01T10:36:34.745Z,23.30
2022-12-01T10:39:03.982Z,21.10
2022-12-01T10:41:34.944Z,25.30
2022-12-01T10:44:05.528Z,20.02
2022-12-01T10:46:48.017Z,22.30
2022-12-01T10:49:16.689Z,20.00
2022-12-01T10:51:55.782Z,18.87
2022-12-01T10:54:31.282Z,23.65
2022-12-01T10:56:59.332Z,23.60
2022-12-01T10:59:34.087Z,19.75
2022-12-01T11:02:02.810Z,19.57
2022-12-01T11:04:44.838Z,21.50
2022-12-01T11:07:18.421Z,22.15
2022-12-01T11:09:46.877Z,27.00
2022-12-01T11:12:17.874Z,23.30
2022-12-01T11:14:48.369Z,22.80
2022-12-01T11:17:41.777Z,24.25
2022-12-01T11:20:30.071Z,20.87
2022-12-01T11:23:24.315Z,25.23
2022-12-01T11:26:13.719Z,24.00
2022-12-01T11:29:12.980Z,22.00
2022-12-01T11:31:42.509Z,22.67
2022-12-01T11:34:20.019Z,22.67
2022-12-01T11:36:51.365Z,23.60
2022-12-01T11:39:38.184Z,22.27
2022-12-01T11:42:26.144Z,20.50
2022-12-01T11:44:55.226Z,22.00
2022-12-01T11:47:26.204Z,22.48
2022-12-01T11:49:58.829Z,22.33
2022-12-01T11:52:27.720Z,21.50
2022-12-01T11:55:22.105Z,22.33
2022-12-01T11:57:51.494Z,19.27
2022-12-01T12:00:50.448Z,20.97
2022-12-01T12:03:31.318Z,21.98
2022-12-01T12:09:11.060Z,22.57
2022-12-01T12:12:24.962Z,21.92
2022-12-01T12:15:10.209Z,23.90
2022-12-01T12:17:51.461Z,20.90
2022-12-01T12:20:25.157Z,20.25
2022-12-01T12:23:10.719Z,21.73
2022-12-01T12:25:37.497Z,19.75
2022-12-01T12:28:15.969Z,21.65
2022-12-01T12:30:49.124Z,22.40
2022-12-01T12:33:26.822Z,29.13
2022-12-01T12:36:14.316Z,23.88
2022-12-01T12:38:56.940Z,21.40
2022-12-01T12:41:36.574Z,20.50
2022-12-01T12:44:31.060Z,24.48
2022-12-01T12:47:00.620Z,23.38
2022-12-01T12:49:42.466Z,23.20
2022-12-01T12:52:24.508Z,24.25
2022-12-01T12:54:54.881Z,21.65
2022-12-01T12:57:36.951Z,24.67
2022-12-01T13:00:06.613Z,22.05
2022-12-01T13:02:56.565Z,22.35
2022-12-01T13:05:36.120Z,22.00
2022-12-01T13:08:11.329Z,21.35
2022-12-01T13:11:04.479Z,20.30
2022-12-01T13:13:43.430Z,23.98
2022-12-01T13:16:15.844Z,21.83
2022-12-01T13:18:50.494Z,24.05
2022-12-01T13:21:20.346Z,24.40
2022-12-01T13:23:50.755Z,20.70
2022-12-01T13:26:20.613Z,20.33
2022-12-01T13:28:54.175Z,24.27
2022-12-01T13:31:21.790Z,22.90
2022-12-01T13:34:02.055Z,23.88
2022-12-01T13:36:46.125Z,20.30
2022-12-01T13:39:40.209Z,23.35
2022-12-01T13:42:27.793Z,23.48
2022-12-01T13:45:00.636Z,22.85
2022-12-01T13:47:40.065Z,22.70
2022-12-01T13:50:53.504Z,22.77
2022-12-01T13:53:20.256Z,22.93
2022-12-01T13:56:03.601Z,21.92
2022-12-01T13:58:33.265Z,20.48
2022-12-01T14:01:22.301Z,22.67
2022-12-01T14:04:02.505Z,19.10
2022-12-01T14:06:51.252Z,20.65
2022-12-01T14:09:31.020Z,19.98
2022-12-01T14:12:22.901Z,20.58
2022-12-01T14:15:02.349Z,19.85
2022-12-01T14:17:33.845Z,20.38
2022-12-01T14:20:21.797Z,18.83
2022-12-01T14:23:03.947Z,20.05
2022-12-01T14:25:31.890Z,20.60
2022-12-01T14:28:01.575Z,19.73
2022-12-01T14:30:40.888Z,18.40
2022-12-01T14:33:44.983Z,20.17
2022-12-01T14:36:23.735Z,20.52
2022-12-01T14:39:05.697Z,19.75
2022-12-01T14:41:49.635Z,18.08
2022-12-01T14:44:41.567Z,18.83
2022-12-01T14:47:11.232Z,18.80
2022-12-01T14:49:52.154Z,17.67
2022-12-01T14:52:38.512Z,16.85
2022-12-01T14:55:14.061Z,20.20
2022-12-01T14:58:00.089Z,17.85
2022-12-01T15:00:27.025Z,18.27
2022-12-01T15:03:00.019Z,20.45
2022-12-01T15:05:32.491Z,20.58
2022-12-01T15:08:40.139Z,22.58
2022-12-01T15:11:07.887Z,20.15
2022-12-01T15:13:52.854Z,20.47
2022-12-01T15:16:22.232Z,21.58
2022-12-01T15:18:49.709Z,19.20
2022-12-01T15:21:29.503Z,20.10
2022-12-01T15:24:06.534Z,21.13
2022-12-01T15:26:46.840Z,20.23
2022-12-01T15:29:20.888Z,22.02
2022-12-01T15:31:51.104Z,20.97
2022-12-01T15:34:23.898Z,22.23
2022-12-01T15:36:52.439Z,21.25
2022-12-01T15:39:30.848Z,20.58
2022-12-01T15:41:58.548Z,21.85
2022-12-01T15:44:35.258Z,20.23
2022-12-01T15:47:29.913Z,24.73
2022-12-01T15:49:56.612Z,22.23
2022-12-01T15:52:23.465Z,19.38
2022-12-01T15:54:51.137Z,21.10
2022-12-01T15:57:21.369Z,20.15
2022-12-01T15:59:54.940Z,19.25
2022-12-01T16:02:24.555Z,21.45
2022-12-01T16:05:01.404Z,21.33
2022-12-01T16:08:04.970Z,19.42
2022-12-01T16:10:29.753Z,20.08
2022-12-01T16:13:34.141Z,22.90
2022-12-01T16:16:01.661Z,20.85
2022-12-01T16:18:33.249Z,20.33
2022-12-01T16:21:05.986Z,20.50
2022-12-01T16:23:33.416Z,19.50
2022-12-01T16:26:02.115Z,20.25
2022-12-01T16:28:35.804Z,18.23
2022-12-01T16:31:05.587Z,20.42
2022-12-01T16:33:38.124Z,20.85
2022-12-01T16:36:05.144Z,19.02
2022-12-01T16:38:31.831Z,22.00
2022-12-01T16:41:13.813Z,20.95
2022-12-01T16:43:46.816Z,19.27
2022-12-01T16:46:26.080Z,19.30
2022-12-01T16:48:52.860Z,21.52
2022-12-01T16:51:29.390Z,22.27
2022-12-01T16:53:59.309Z,20.50
2022-12-01T16:56:26.465Z,20.83
2022-12-01T16:58:54.683Z,22.60
2022-12-01T17:01:21.449Z,21.67
2022-12-01T17:03:48.162Z,24.35
2022-12-01T17:06:19.375Z,21.55
2022-12-01T17:08:46.636Z,23.17
2022-12-01T17:11:13.378Z,23.35
2022-12-01T17:13:40.195Z,23.05
2022-12-01T17:16:10.746Z,19.85
2022-12-01T17:18:39.826Z,21.63
2022-12-01T17:21:10.515Z,25.73
2022-12-01T17:23:38.500Z,22.90
2022-12-01T17:26:14.708Z,22.83
2022-12-01T17:28:41.737Z,22.15
2022-12-01T17:31:09.208Z,23.48
2022-12-01T17:33:36.351Z,25.48
2022-12-01T17:36:06.444Z,23.10
2022-12-01T17:38:37.948Z,21.70
2022-12-01T17:41:14.090Z,21.83
2022-12-01T17:43:41.432Z,23.17
2022-12-01T17:46:10.569Z,23.52
2022-12-01T17:48:39.064Z,21.45
2022-12-01T17:51:06.792Z,23.10
2022-12-01T17:53:33.742Z,24.58
2022-12-01T17:56:00.407Z,23.73
2022-12-01T17:58:27.230Z,22.58
2022-12-01T18:00:54.346Z,23.83
2022-12-01T18:03:21.923Z,22.83
2022-12-01T18:05:56.316Z,23.33
2022-12-01T18:08:24.100Z,23.80
2022-12-01T18:10:50.755Z,23.73
2022-12-01T18:13:20.209Z,26.25
2022-12-01T18:15:48.355Z,24.23
2022-12-01T18:18:15.310Z,24.25
2022-12-01T18:20:42.991Z,23.60
2022-12-01T18:23:11.165Z,23.65
2022-12-01T18:25:39.499Z,24.33
2022-12-01T18:28:06.528Z,24.23
2022-12-01T18:30:33.895Z,23.10
2022-12-01T18:33:01.093Z,25.88
2022-12-01T18:35:31.952Z,22.83
2022-12-01T18:37:58.952Z,22.08
2022-12-01T18:40:25.620Z,21.88
2022-12-01T18:42:52.533Z,23.75
2022-12-01T18:45:21.341Z,22.05
2022-12-01T18:47:48.409Z,21.35
2022-12-01T18:50:15.309Z,21.30
2022-12-01T18:52:41.970Z,27.73
2022-12-01T18:55:09.048Z,22.13
2022-12-01T18:57:35.742Z,23.70
2022-12-01T19:00:04.550Z,27.00
2022-12-01T19:02:31.646Z,25.90
2022-12-01T19:04:58.374Z,24.63
2022-12-01T19:07:29.602Z,23.83
2022-12-01T19:09:56.756Z,22.85
2022-12-01T19:12:23.404Z,26.70
2022-12-01T19:14:53.073Z,23.00
2022-12-01T19:17:20.092Z,22.52
2022-12-01T19:19:46.771Z,23.45
2022-12-01T19:22:13.484Z,22.80
2022-12-01T19:24:40.149Z,23.13
2022-12-01T19:27:06.826Z,24.13
2022-12-01T19:29:33.715Z,21.45
2022-12-01T19:32:01.611Z,23.40
2022-12-01T19:34:28.338Z,23.20
2022-12-01T19:36:56.696Z,22.73
2022-12-01T19:39:23.852Z,23.52
2022-12-01T19:41:50.554Z,24.02
2022-12-01T19:44:17.498Z,24.77
2022-12-01T19:46:44.822Z,23.67
2022-12-01T19:49:11.659Z,24.75
2022-12-01T19:51:39.479Z,23.05
2022-12-01T19:54:12.912Z,21.33
2022-12-01T19:56:39.633Z,23.75
2022-12-01T19:59:07.904Z,21.67
2022-12-01T20:01:34.698Z,24.10
2022-12-01T20:04:01.445Z,21.10
2022-12-01T20:06:29.947Z,26.35
2022-12-01T20:08:59.772Z,24.23
2022-12-01T20:11:29.545Z,22.55
2022-12-01T20:13:56.481Z,20.48
2022-12-01T20:16:25.246Z,20.88
2022-12-01T20:18:53.491Z,21.63
2022-12-01T20:21:23.479Z,22.10
2022-12-01T20:23:54.474Z,24.00
2022-12-01T20:26:24.905Z,25.45
2022-12-01T20:28:54.528Z,25.67
2022-12-01T20:31:24.859Z,24.17
2022-12-01T20:33:54.049Z,24.60
2022-12-01T20:36:21.614Z,26.10
2022-12-01T20:38:48.785Z,26.65
2022-12-01T20:41:16.226Z,26.13
2022-12-01T20:43:43.026Z,28.50
2022-12-01T20:46:13.242Z,24.80
2022-12-01T20:48:40.471Z,24.63
2022-12-01T20:51:08.263Z,26.90
2022-12-01T20:53:35.675Z,24.50
2022-12-01T20:56:08.501Z,25.67
2022-12-01T20:58:37.925Z,25.90
2022-12-01T21:01:14.063Z,26.17
2022-12-01T21:03:42.698Z,24.25
2022-12-01T21:06:11.399Z,21.40
2022-12-01T21:08:39.706Z,22.00
2022-12-01T21:11:13.391Z,22.25
2022-12-01T21:13:42.113Z,22.55
2022-12-01T21:16:25.762Z,25.08
2022-12-01T21:19:01.721Z,24.45
2022-12-01T21:21:31.434Z,22.67
2022-12-01T21:24:42.096Z,24.92
2022-12-01T21:27:15.865Z,28.58
2022-12-01T21:29:46.705Z,29.30
2022-12-01T21:32:28.973Z,25.08
2022-12-01T21:35:07.946Z,23.33
2022-12-01T21:37:35.571Z,26.02
2022-12-01T21:40:02.279Z,26.77
2022-12-01T21:42:31.489Z,29.17
2022-12-01T21:44:58.279Z,25.45
2022-12-01T21:47:29.728Z,26.58
2022-12-01T21:49:57.994Z,30.80
2022-12-01T21:52:30.242Z,27.08
2022-12-01T21:55:17.244Z,25.20
2022-12-01T21:57:49.773Z,31.45
2022-12-01T22:00:29.064Z,36.10
2022-12-01T22:03:01.926Z,25.77
2022-12-01T22:05:38.249Z,27.65
2022-12-01T22:08:14.085Z,28.42
2022-12-01T22:11:05.528Z,29.52
2022-12-01T22:13:56.850Z,32.20
2022-12-01T22:16:30.604Z,29.85
2022-12-01T22:18:59.826Z,28.80
2022-12-01T22:21:40.892Z,29.30
2022-12-01T22:24:10.407Z,28.00
2022-12-01T22:26:38.704Z,27.35
2022-12-01T22:29:20.277Z,32.45
2022-12-01T22:31:48.027Z,33.03
2022-12-01T22:34:16.860Z,45.15
2022-12-01T22:36:43.624Z,55.05
2022-12-01T22:39:30.515Z,43.58
2022-12-01T22:42:00.010Z,35.08
2022-12-01T22:44:28.235Z,30.08
2022-12-01T22:47:01.026Z,30.67
2022-12-01T22:49:28.875Z,29.30
2022-12-01T22:52:02.962Z,31.08
2022-12-01T22:54:38.664Z,27.85
2022-12-01T22:57:08.089Z,23.67
2022-12-01T22:59:37.364Z,27.15
2022-12-01T23:02:20.781Z,28.90
2022-12-01T23:04:49.651Z,29.05
2022-12-01T23:07:34.833Z,30.67
2022-12-01T23:10:07.155Z,31.75
2022-12-01T23:12:37.278Z,29.80
2022-12-01T23:15:32.190Z,34.47
2022-12-01T23:18:23.441Z,35.45
2022-12-01T23:20:52.845Z,33.40
2022-12-01T23:23:31.036Z,32.97
2022-12-01T23:25:58.558Z,29.55
2022-12-01T23:28:25.467Z,28.35
2022-12-01T23:30:56.789Z,28.75
2022-12-01T23:33:25.880Z,29.52
2022-12-01T23:35:58.604Z,29.67
2022-12-01T23:38:47.236Z,30.30
2022-12-01T23:41:35.608Z,26.38
2022-12-01T23:44:11.754Z,26.90
2022-12-01T23:46:38.605Z,28.02
2022-12-01T23:49:11.263Z,24.65
2022-12-01T23:51:42.568Z,30.60
2022-12-01T23:54:34.098Z,27.10
2022-12-01T23:57:20.789Z,27.80
2022-12-01T23:59:54.332Z,31.63
